createdAt,value
2018-03-06T00:00:38.936Z,11.43
2018-03-06T00:01:41.463Z,10.60
2018-03-06T00:02:44.902Z,11.25
2018-03-06T00:03:47.413Z,10.85
2018-03-06T00:04:50.609Z,10.05
2018-03-06T00:05:53.121Z,10.85
2018-03-06T00:06:55.669Z,9.57
2018-03-06T00:07:58.214Z,10.30
2018-03-06T00:09:00.815Z,9.77
2018-03-06T00:10:03.336Z,11.68
2018-03-06T00:11:05.867Z,11.38
2018-03-06T00:12:08.430Z,10.50
2018-03-06T00:13:11.722Z,11.50
2018-03-06T00:14:15.009Z,10.98
2018-03-06T00:15:19.515Z,10.43
2018-03-06T00:16:22.809Z,10.70
2018-03-06T00:17:26.108Z,10.65
2018-03-06T00:18:28.656Z,9.65
2018-03-06T00:19:32.892Z,10.30
2018-03-06T00:20:35.404Z,10.30
2018-03-06T00:21:37.932Z,10.32
2018-03-06T00:22:40.452Z,11.57
2018-03-06T00:23:42.988Z,10.52
2018-03-06T00:24:45.504Z,11.20
2018-03-06T00:25:48.780Z,11.55
2018-03-06T00:26:51.305Z,10.55
2018-03-06T00:27:53.858Z,10.85
2018-03-06T00:28:57.141Z,10.52
2018-03-06T00:30:00.444Z,12.05
2018-03-06T00:31:02.983Z,10.25
2018-03-06T00:32:05.515Z,11.50
2018-03-06T00:33:08.056Z,10.20
2018-03-06T00:34:10.618Z,10.45
2018-03-06T00:35:13.901Z,11.12
2018-03-06T00:36:17.238Z,11.43
2018-03-06T00:37:19.763Z,11.35
2018-03-06T00:38:23.154Z,11.23
2018-03-06T00:39:25.625Z,10.85
2018-03-06T00:40:28.921Z,11.75
2018-03-06T00:41:32.204Z,11.48
2018-03-06T00:42:35.495Z,10.35
2018-03-06T00:43:38.761Z,11.80
2018-03-06T00:44:41.326Z,11.00
2018-03-06T00:45:45.348Z,11.12
2018-03-06T00:46:48.636Z,11.85
2018-03-06T00:47:51.993Z,11.35
2018-03-06T00:48:54.511Z,11.48
2018-03-06T00:49:57.816Z,11.27
2018-03-06T00:51:00.352Z,11.93
2018-03-06T00:52:02.870Z,12.35
2018-03-06T00:53:05.392Z,11.73
2018-03-06T00:54:07.917Z,11.40
2018-03-06T00:55:10.459Z,11.63
2018-03-06T00:56:13.744Z,11.88
2018-03-06T00:57:17.011Z,11.90
2018-03-06T00:58:20.321Z,11.85
2018-03-06T00:59:23.595Z,11.65
2018-03-06T01:00:26.884Z,11.35
2018-03-06T01:01:30.191Z,11.85
2018-03-06T01:02:33.488Z,12.68
2018-03-06T01:03:35.995Z,12.75
2018-03-06T01:04:38.502Z,11.73
2018-03-06T01:05:41.020Z,11.50
2018-03-06T01:06:43.541Z,12.55
2018-03-06T01:07:46.832Z,12.35
2018-03-06T01:08:50.096Z,12.00
2018-03-06T01:09:52.628Z,12.63
2018-03-06T01:10:55.163Z,11.65
2018-03-06T01:11:58.451Z,12.15
2018-03-06T01:13:01.737Z,11.15
2018-03-06T01:14:05.015Z,12.30
2018-03-06T01:15:07.536Z,12.73
2018-03-06T01:16:10.077Z,10.73
2018-03-06T01:17:13.386Z,13.02
2018-03-06T01:18:15.929Z,12.20
2018-03-06T01:19:18.460Z,11.90
2018-03-06T01:20:20.970Z,12.37
2018-03-06T01:21:23.495Z,12.80
2018-03-06T01:22:26.015Z,12.75
2018-03-06T01:23:29.294Z,11.38
2018-03-06T01:24:32.554Z,11.82
2018-03-06T01:25:35.088Z,11.10
2018-03-06T01:26:37.583Z,11.48
2018-03-06T01:27:40.128Z,10.18
2018-03-06T01:28:42.643Z,12.07
2018-03-06T01:29:45.163Z,11.90
2018-03-06T01:30:48.451Z,11.85
2018-03-06T01:31:50.969Z,12.98
2018-03-06T01:32:53.495Z,12.10
2018-03-06T01:33:56.026Z,10.55
2018-03-06T01:34:58.539Z,14.00
2018-03-06T01:36:01.058Z,11.30
2018-03-06T01:37:03.600Z,11.80
2018-03-06T01:38:08.364Z,11.60
2018-03-06T01:39:11.667Z,13.75
2018-03-06T01:40:14.189Z,11.90
2018-03-06T01:41:16.711Z,11.88
2018-03-06T01:42:20.017Z,11.23
2018-03-06T01:43:22.551Z,11.20
2018-03-06T01:44:25.829Z,11.30
2018-03-06T01:45:28.353Z,10.73
2018-03-06T01:46:30.883Z,11.57
2018-03-06T01:47:33.410Z,12.07
2018-03-06T01:48:35.937Z,13.18
2018-03-06T01:49:38.457Z,10.73
2018-03-06T01:50:40.975Z,11.95
2018-03-06T01:51:55.377Z,11.75
2018-03-06T01:52:57.907Z,11.85
2018-03-06T01:54:01.190Z,12.13
2018-03-06T01:55:04.468Z,11.82
2018-03-06T01:56:06.986Z,12.15
2018-03-06T01:57:09.519Z,11.95
2018-03-06T01:58:12.833Z,12.88
2018-03-06T01:59:15.363Z,14.02
2018-03-06T02:00:18.640Z,12.35
2018-03-06T02:01:21.146Z,12.73
2018-03-06T02:02:23.668Z,12.50
2018-03-06T02:03:26.219Z,11.90
2018-03-06T02:04:28.730Z,13.25
2018-03-06T02:05:31.237Z,12.37
2018-03-06T02:06:33.762Z,12.18
2018-03-06T02:07:36.280Z,14.57
2018-03-06T02:08:39.585Z,12.05
2018-03-06T02:09:42.160Z,12.70
2018-03-06T02:10:44.662Z,13.00
2018-03-06T02:11:47.171Z,13.23
2018-03-06T02:12:50.446Z,12.73
2018-03-06T02:13:53.730Z,13.27
2018-03-06T02:14:56.253Z,13.20
2018-03-06T02:15:58.764Z,12.32
2018-03-06T02:17:01.271Z,12.37
2018-03-06T02:18:03.782Z,12.65
2018-03-06T02:19:06.322Z,13.70
2018-03-06T02:20:08.896Z,13.62
2018-03-06T02:21:11.455Z,13.05
2018-03-06T02:22:13.974Z,13.73
2018-03-06T02:23:16.503Z,13.60
2018-03-06T02:24:19.043Z,13.70
2018-03-06T02:25:22.335Z,14.20
2018-03-06T02:26:25.623Z,14.13
2018-03-06T02:27:28.902Z,13.43
2018-03-06T02:28:31.416Z,15.20
2018-03-06T02:29:33.960Z,13.90
2018-03-06T02:30:37.245Z,14.40
2018-03-06T02:31:40.528Z,14.75
2018-03-06T02:32:43.810Z,12.57
2018-03-06T02:33:46.312Z,13.45
2018-03-06T02:34:48.816Z,15.80
2018-03-06T02:35:51.342Z,13.40
2018-03-06T02:36:54.639Z,15.57
2018-03-06T02:37:57.158Z,14.10
2018-03-06T02:38:59.684Z,13.95
2018-03-06T02:40:02.199Z,14.52
2018-03-06T02:41:04.720Z,15.88
2018-03-06T02:42:07.230Z,15.45
2018-03-06T02:43:09.757Z,15.80
2018-03-06T02:44:12.268Z,15.52
2018-03-06T02:45:14.788Z,14.75
2018-03-06T02:46:18.098Z,15.07
2018-03-06T02:47:20.617Z,14.55
2018-03-06T02:48:23.897Z,14.38
2018-03-06T02:49:27.121Z,14.90
2018-03-06T02:50:30.414Z,14.85
2018-03-06T02:51:32.957Z,15.73
2018-03-06T02:52:35.461Z,14.98
2018-03-06T02:53:37.978Z,13.65
2018-03-06T02:54:40.492Z,16.33
2018-03-06T02:55:43.776Z,15.48
2018-03-06T02:56:47.059Z,14.40
2018-03-06T02:57:49.579Z,14.20
2018-03-06T02:58:52.092Z,16.70
2018-03-06T02:59:54.617Z,14.93
2018-03-06T03:00:57.131Z,16.60
2018-03-06T03:02:00.416Z,15.85
2018-03-06T03:03:02.945Z,14.35
2018-03-06T03:04:05.459Z,16.67
2018-03-06T03:05:08.001Z,17.10
2018-03-06T03:06:10.581Z,15.63
2018-03-06T03:07:13.107Z,16.27
2018-03-06T03:08:15.630Z,15.45
2018-03-06T03:09:18.148Z,16.45
2018-03-06T03:10:21.239Z,16.02
2018-03-06T03:11:23.755Z,17.73
2018-03-06T03:12:26.287Z,16.70
2018-03-06T03:13:28.813Z,16.10
2018-03-06T03:14:31.320Z,15.15
2018-03-06T03:15:33.841Z,15.60
2018-03-06T03:16:36.353Z,15.73
2018-03-06T03:17:38.897Z,14.87
2018-03-06T03:18:41.406Z,15.75
2018-03-06T03:19:43.946Z,14.87
2018-03-06T03:20:46.459Z,16.00
2018-03-06T03:21:48.978Z,15.80
2018-03-06T03:22:51.503Z,14.38
2018-03-06T03:23:54.027Z,15.55
2018-03-06T03:24:57.271Z,15.23
2018-03-06T03:25:59.789Z,16.08
2018-03-06T03:27:02.301Z,16.98
2018-03-06T03:28:05.337Z,15.60
2018-03-06T03:29:08.619Z,16.80
2018-03-06T03:30:11.944Z,15.07
2018-03-06T03:31:14.430Z,15.82
2018-03-06T03:32:16.950Z,16.77
2018-03-06T03:33:19.487Z,16.45
2018-03-06T03:34:22.003Z,15.80
2018-03-06T03:35:25.299Z,15.88
2018-03-06T03:36:28.574Z,16.45
2018-03-06T03:37:31.073Z,15.73
2018-03-06T03:38:33.615Z,16.15
2018-03-06T03:39:36.913Z,16.30
2018-03-06T03:40:40.216Z,16.65
2018-03-06T03:41:42.742Z,16.48
2018-03-06T03:42:45.261Z,15.80
2018-03-06T03:43:48.650Z,16.10
2018-03-06T03:44:51.169Z,16.55
2018-03-06T03:45:53.693Z,15.70
2018-03-06T03:46:56.280Z,15.20
2018-03-06T03:47:59.786Z,15.75
2018-03-06T03:49:02.333Z,17.35
2018-03-06T03:50:04.852Z,15.82
2018-03-06T03:51:07.400Z,15.93
2018-03-06T03:52:09.948Z,15.95
2018-03-06T03:53:12.468Z,16.25
2018-03-06T03:54:14.999Z,16.60
2018-03-06T03:55:17.510Z,17.60
2018-03-06T03:56:20.020Z,16.42
2018-03-06T03:57:22.534Z,17.15
2018-03-06T03:58:25.099Z,16.37
2018-03-06T03:59:27.635Z,18.67
2018-03-06T04:00:30.163Z,17.85
2018-03-06T04:01:32.678Z,15.35
2018-03-06T04:02:35.197Z,16.42
2018-03-06T04:03:37.759Z,15.00
2018-03-06T04:04:40.266Z,16.20
2018-03-06T04:05:42.783Z,16.25
2018-03-06T04:06:45.295Z,17.65
2018-03-06T04:07:47.828Z,16.30
2018-03-06T04:08:50.347Z,18.10
2018-03-06T04:09:53.641Z,17.00
2018-03-06T04:10:56.920Z,16.77
2018-03-06T04:11:59.430Z,18.60
2018-03-06T04:13:01.947Z,18.48
2018-03-06T04:14:05.366Z,18.75
2018-03-06T04:15:08.652Z,18.62
2018-03-06T04:16:11.946Z,20.90
2018-03-06T04:17:15.256Z,20.58
2018-03-06T04:18:18.530Z,21.52
2018-03-06T04:19:21.821Z,20.77
2018-03-06T04:20:24.342Z,21.87
2018-03-06T04:21:26.852Z,21.33
2018-03-06T04:22:30.128Z,21.50
2018-03-06T04:23:32.658Z,22.17
2018-03-06T04:24:35.181Z,21.75
2018-03-06T04:25:38.540Z,23.55
2018-03-06T04:26:41.182Z,22.95
2018-03-06T04:27:43.699Z,22.50
2018-03-06T04:28:46.203Z,21.00
2018-03-06T04:29:48.774Z,21.65
2018-03-06T04:30:51.429Z,22.17
2018-03-06T04:31:54.719Z,22.27
2018-03-06T04:32:58.589Z,20.67
2018-03-06T04:34:01.114Z,21.27
2018-03-06T04:35:03.650Z,22.15
2018-03-06T04:36:06.768Z,21.73
2018-03-06T04:37:09.290Z,21.25
2018-03-06T04:38:12.607Z,21.00
2018-03-06T04:39:15.888Z,21.05
2018-03-06T04:40:19.171Z,22.08
2018-03-06T04:41:21.697Z,19.45
2018-03-06T04:42:24.222Z,21.40
2018-03-06T04:43:27.521Z,19.73
2018-03-06T04:44:30.039Z,21.77
2018-03-06T04:45:32.572Z,20.80
2018-03-06T04:46:35.084Z,23.38
2018-03-06T04:47:37.623Z,23.05
2018-03-06T04:48:40.146Z,22.42
2018-03-06T04:49:42.662Z,24.87
2018-03-06T04:50:45.197Z,22.50
2018-03-06T04:51:48.479Z,23.00
2018-03-06T04:52:50.973Z,22.40
2018-03-06T04:53:54.253Z,22.42
2018-03-06T04:54:57.526Z,23.15
2018-03-06T04:56:00.063Z,23.30
2018-03-06T04:57:02.577Z,23.30
2018-03-06T04:58:05.079Z,22.90
2018-03-06T04:59:07.594Z,23.90
2018-03-06T05:00:10.129Z,21.70
2018-03-06T05:01:12.643Z,23.30
2018-03-06T05:02:15.152Z,21.10
2018-03-06T05:03:17.687Z,22.48
2018-03-06T05:04:20.203Z,22.80
2018-03-06T05:05:22.709Z,23.33
2018-03-06T05:06:25.235Z,22.55
2018-03-06T05:07:27.738Z,22.15
2018-03-06T05:08:30.242Z,21.33
2018-03-06T05:09:32.775Z,19.10
2018-03-06T05:10:35.294Z,21.35
2018-03-06T05:11:37.816Z,21.00
2018-03-06T05:12:40.331Z,21.87
2018-03-06T05:13:44.187Z,21.00
2018-03-06T05:14:46.704Z,21.23
2018-03-06T05:15:49.986Z,20.58
2018-03-06T05:16:54.043Z,22.13
2018-03-06T05:17:56.556Z,18.35
2018-03-06T05:18:59.051Z,22.92
2018-03-06T05:20:02.354Z,21.25
2018-03-06T05:21:04.869Z,19.77
2018-03-06T05:22:07.394Z,21.17
2018-03-06T05:23:10.820Z,21.42
2018-03-06T05:24:13.347Z,21.95
2018-03-06T05:25:16.628Z,19.80
2018-03-06T05:26:19.894Z,19.77
2018-03-06T05:27:22.410Z,21.62
2018-03-06T05:28:24.920Z,20.88
2018-03-06T05:29:27.436Z,21.80
2018-03-06T05:30:30.709Z,22.20
2018-03-06T05:31:34.025Z,22.73
2018-03-06T05:32:36.540Z,19.98
2018-03-06T05:33:39.054Z,21.80
2018-03-06T05:34:42.332Z,21.70
2018-03-06T05:35:44.841Z,20.62
2018-03-06T05:36:47.355Z,22.75
2018-03-06T05:37:49.870Z,19.80
2018-03-06T05:38:53.152Z,21.70
2018-03-06T05:39:55.672Z,20.27
2018-03-06T05:40:58.183Z,21.90
2018-03-06T05:42:01.447Z,20.67
2018-03-06T05:43:03.972Z,22.13
2018-03-06T05:44:06.522Z,22.62
2018-03-06T05:45:09.033Z,22.33
2018-03-06T05:46:11.617Z,21.08
2018-03-06T05:47:14.135Z,20.50
2018-03-06T05:48:16.661Z,20.42
2018-03-06T05:49:19.977Z,22.40
2018-03-06T05:50:24.085Z,22.52
2018-03-06T05:51:27.365Z,22.45
2018-03-06T05:52:29.871Z,21.10
2018-03-06T05:53:32.412Z,21.37
2018-03-06T05:54:35.702Z,22.85
2018-03-06T05:55:38.986Z,21.37
2018-03-06T05:56:42.262Z,21.90
2018-03-06T05:57:44.761Z,20.90
2018-03-06T05:58:48.854Z,21.55
2018-03-06T05:59:52.146Z,23.83
2018-03-06T06:00:55.413Z,22.80
2018-03-06T06:01:59.443Z,22.60
2018-03-06T06:03:02.737Z,23.17
2018-03-06T06:04:06.031Z,23.35
2018-03-06T06:05:08.558Z,21.08
2018-03-06T06:06:11.090Z,22.60
2018-03-06T06:07:13.609Z,24.23
2018-03-06T06:08:16.158Z,24.15
2018-03-06T06:09:18.683Z,21.05
2018-03-06T06:10:21.231Z,22.23
2018-03-06T06:11:24.525Z,22.60
2018-03-06T06:12:27.808Z,20.98
2018-03-06T06:13:30.317Z,22.60
2018-03-06T06:14:32.837Z,19.65
2018-03-06T06:15:35.810Z,19.30
2018-03-06T06:16:39.262Z,20.98
2018-03-06T06:17:41.779Z,21.48
2018-03-06T06:18:44.279Z,21.50
2018-03-06T06:19:47.545Z,21.83
2018-03-06T06:20:50.055Z,20.95
2018-03-06T06:21:53.327Z,20.75
2018-03-06T06:22:56.299Z,19.52
2018-03-06T06:23:58.795Z,20.30
2018-03-06T06:25:02.099Z,21.17
2018-03-06T06:26:04.586Z,20.33
2018-03-06T06:27:07.089Z,21.17
2018-03-06T06:28:09.620Z,19.55
2018-03-06T06:29:12.165Z,19.65
2018-03-06T06:30:14.666Z,19.73
2018-03-06T06:31:17.201Z,20.30
2018-03-06T06:32:20.475Z,21.40
2018-03-06T06:33:23.462Z,19.52
2018-03-06T06:34:26.768Z,18.45
2018-03-06T06:35:30.031Z,20.77
2018-03-06T06:36:32.634Z,18.12
2018-03-06T06:37:37.992Z,19.65
2018-03-06T06:38:41.188Z,19.23
2018-03-06T06:39:43.716Z,19.08
2018-03-06T06:40:46.219Z,17.90
2018-03-06T06:41:48.711Z,18.20
2018-03-06T06:42:51.203Z,16.90
2018-03-06T06:43:55.039Z,16.55
2018-03-06T06:44:57.589Z,16.60
2018-03-06T06:46:00.092Z,15.95
2018-03-06T06:47:02.986Z,16.35
2018-03-06T06:48:06.439Z,17.23
2018-03-06T06:49:08.940Z,16.50
2018-03-06T06:50:11.478Z,15.60
2018-03-06T06:51:14.024Z,16.35
2018-03-06T06:52:17.297Z,15.23
2018-03-06T06:53:19.793Z,14.93
2018-03-06T06:54:23.069Z,14.10
2018-03-06T06:55:26.334Z,15.52
2018-03-06T06:56:28.826Z,15.18
2018-03-06T06:57:31.374Z,15.05
2018-03-06T06:58:33.848Z,15.45
2018-03-06T06:59:36.353Z,14.98
2018-03-06T07:00:39.622Z,16.27
2018-03-06T07:01:42.110Z,15.85
2018-03-06T07:02:45.381Z,15.40
2018-03-06T07:03:47.883Z,14.82
2018-03-06T07:04:50.374Z,14.05
2018-03-06T07:05:52.897Z,15.70
2018-03-06T07:06:56.146Z,14.27
2018-03-06T07:07:58.679Z,15.90
2018-03-06T07:09:01.208Z,14.18
2018-03-06T07:10:03.699Z,14.90
2018-03-06T07:11:07.008Z,14.13
2018-03-06T07:12:09.509Z,14.27
2018-03-06T07:13:12.035Z,14.25
2018-03-06T07:14:15.353Z,14.95
2018-03-06T07:15:17.862Z,14.87
2018-03-06T07:16:20.374Z,14.10
2018-03-06T07:17:23.626Z,14.63
2018-03-06T07:18:26.113Z,15.13
2018-03-06T07:19:28.607Z,15.02
2018-03-06T07:20:31.121Z,14.43
2018-03-06T07:21:33.922Z,14.98
2018-03-06T07:22:36.408Z,13.98
2018-03-06T07:23:39.711Z,14.93
2018-03-06T07:24:43.009Z,15.20
2018-03-06T07:25:45.579Z,14.68
2018-03-06T07:26:48.113Z,13.93
2018-03-06T07:27:51.610Z,15.65
2018-03-06T07:28:54.879Z,13.45
2018-03-06T07:29:57.396Z,14.77
2018-03-06T07:30:59.894Z,14.60
2018-03-06T07:32:02.412Z,13.98
2018-03-06T07:33:04.977Z,13.50
2018-03-06T07:34:08.695Z,13.07
2018-03-06T07:35:12.925Z,14.05
2018-03-06T07:36:15.451Z,13.25
2018-03-06T07:37:17.976Z,13.80
2018-03-06T07:38:20.519Z,14.20
2018-03-06T07:39:23.042Z,13.32
2018-03-06T07:40:25.558Z,13.85
2018-03-06T07:41:28.712Z,13.40
2018-03-06T07:42:31.198Z,14.35
2018-03-06T07:43:34.495Z,14.45
2018-03-06T07:44:37.753Z,12.95
2018-03-06T07:45:40.252Z,13.82
2018-03-06T07:46:43.517Z,13.85
2018-03-06T07:47:46.006Z,13.65
2018-03-06T07:48:48.520Z,13.30
2018-03-06T07:49:51.016Z,14.82
2018-03-06T07:50:53.515Z,13.73
2018-03-06T07:51:56.013Z,14.00
2018-03-06T07:52:58.523Z,14.38
2018-03-06T07:54:01.081Z,15.68
2018-03-06T07:55:03.603Z,15.90
2018-03-06T07:56:06.904Z,14.45
2018-03-06T07:57:10.192Z,14.38
2018-03-06T07:58:12.705Z,14.15
2018-03-06T07:59:15.228Z,15.30
2018-03-06T08:00:18.519Z,14.40
2018-03-06T08:01:21.794Z,15.38
2018-03-06T08:02:25.065Z,14.00
2018-03-06T08:03:27.556Z,14.85
2018-03-06T08:04:30.850Z,13.93
2018-03-06T08:05:34.169Z,14.23
2018-03-06T08:06:36.695Z,14.32
2018-03-06T08:07:39.961Z,14.55
2018-03-06T08:08:42.443Z,14.93
2018-03-06T08:09:45.409Z,15.18
2018-03-06T08:10:47.916Z,14.18
2018-03-06T08:11:51.187Z,14.98
2018-03-06T08:12:53.669Z,15.75
2018-03-06T08:13:56.931Z,14.63
2018-03-06T08:14:59.420Z,14.85
2018-03-06T08:16:01.944Z,15.35
2018-03-06T08:17:04.427Z,15.65
2018-03-06T08:18:07.696Z,15.98
2018-03-06T08:19:10.199Z,15.70
2018-03-06T08:20:13.462Z,15.13
2018-03-06T08:21:16.084Z,15.82
2018-03-06T08:22:19.345Z,15.40
2018-03-06T08:23:21.847Z,14.80
2018-03-06T08:24:25.102Z,15.18
2018-03-06T08:25:27.650Z,15.23
2018-03-06T08:26:31.012Z,14.25
2018-03-06T08:27:34.279Z,15.18
2018-03-06T08:28:37.574Z,16.33
2018-03-06T08:29:40.836Z,15.00
2018-03-06T08:30:43.344Z,15.68
2018-03-06T08:31:45.867Z,13.38
2018-03-06T08:32:48.394Z,14.13
2018-03-06T08:33:50.903Z,14.80
2018-03-06T08:34:53.411Z,15.68
2018-03-06T08:35:56.741Z,15.30
2018-03-06T08:36:59.230Z,15.07
2018-03-06T08:38:01.732Z,15.90
2018-03-06T08:39:04.244Z,15.23
2018-03-06T08:40:06.754Z,15.25
2018-03-06T08:41:09.252Z,15.70
2018-03-06T08:42:12.555Z,16.77
2018-03-06T08:43:15.848Z,16.40
2018-03-06T08:44:19.137Z,16.30
2018-03-06T08:45:22.410Z,18.35
2018-03-06T08:46:25.685Z,16.08
2018-03-06T08:47:28.190Z,14.98
2018-03-06T08:48:30.678Z,16.00
2018-03-06T08:49:33.175Z,16.95
2018-03-06T08:50:36.597Z,15.25
2018-03-06T08:51:39.859Z,16.35
2018-03-06T08:52:42.361Z,16.75
2018-03-06T08:53:45.618Z,15.25
2018-03-06T08:54:48.117Z,16.90
2018-03-06T08:55:51.388Z,15.35
2018-03-06T08:56:54.342Z,14.68
2018-03-06T08:57:56.863Z,16.62
2018-03-06T08:59:00.126Z,15.05
2018-03-06T09:00:02.613Z,15.60
2018-03-06T09:01:05.872Z,17.23
2018-03-06T09:02:08.377Z,16.40
2018-03-06T09:03:11.674Z,17.85
2018-03-06T09:04:15.012Z,16.85
2018-03-06T09:05:17.538Z,14.82
2018-03-06T09:06:20.063Z,14.82
2018-03-06T09:07:22.592Z,15.57
2018-03-06T09:08:25.122Z,16.77
2018-03-06T09:09:27.616Z,16.77
2018-03-06T09:10:30.876Z,16.75
2018-03-06T09:11:33.367Z,15.85
2018-03-06T09:12:36.655Z,16.37
2018-03-06T09:13:39.945Z,16.73
2018-03-06T09:14:43.218Z,15.65
2018-03-06T09:15:46.553Z,17.70
2018-03-06T09:16:49.923Z,15.55
2018-03-06T09:17:52.432Z,16.95
2018-03-06T09:18:54.969Z,16.25
2018-03-06T09:19:57.460Z,16.35
2018-03-06T09:20:59.942Z,16.77
2018-03-06T09:22:02.460Z,16.83
2018-03-06T09:23:05.738Z,16.62
2018-03-06T09:24:08.249Z,16.52
2018-03-06T09:25:11.653Z,17.30
2018-03-06T09:26:14.175Z,17.40
2018-03-06T09:27:17.464Z,16.75
2018-03-06T09:28:20.728Z,18.92
2018-03-06T09:29:24.146Z,17.55
2018-03-06T09:30:27.437Z,18.02
2018-03-06T09:31:30.699Z,17.42
2018-03-06T09:32:33.190Z,17.35
2018-03-06T09:33:36.470Z,17.08
2018-03-06T09:34:38.980Z,17.23
2018-03-06T09:35:41.478Z,17.25
2018-03-06T09:36:43.986Z,18.27
2018-03-06T09:37:47.260Z,17.77
2018-03-06T09:38:49.761Z,17.15
2018-03-06T09:39:53.032Z,16.20
2018-03-06T09:40:56.316Z,17.02
2018-03-06T09:41:58.806Z,17.15
2018-03-06T09:43:01.300Z,18.60
2018-03-06T09:44:03.791Z,16.92
2018-03-06T09:45:06.314Z,16.45
2018-03-06T09:46:09.579Z,18.00
2018-03-06T09:47:12.091Z,15.85
2018-03-06T09:48:15.500Z,16.62
2018-03-06T09:49:18.009Z,15.80
2018-03-06T09:50:20.524Z,18.33
2018-03-06T09:51:23.020Z,17.45
2018-03-06T09:52:25.553Z,16.62
2018-03-06T09:53:28.816Z,17.75
2018-03-06T09:54:32.085Z,18.33
2018-03-06T09:55:34.608Z,16.00
2018-03-06T09:56:37.116Z,17.90
2018-03-06T09:57:39.614Z,16.50
2018-03-06T09:58:42.121Z,16.30
2018-03-06T09:59:44.616Z,17.20
2018-03-06T10:00:47.123Z,15.48
2018-03-06T10:01:50.413Z,17.17
2018-03-06T10:02:53.732Z,17.45
2018-03-06T10:03:56.238Z,17.30
2018-03-06T10:04:58.758Z,17.83
2018-03-06T10:06:02.019Z,15.88
2018-03-06T10:07:04.528Z,17.27
2018-03-06T10:08:07.048Z,17.67
2018-03-06T10:09:09.566Z,15.57
2018-03-06T10:10:12.100Z,16.35
2018-03-06T10:11:14.648Z,17.85
2018-03-06T10:12:17.177Z,16.35
2018-03-06T10:13:19.703Z,15.77
2018-03-06T10:14:22.218Z,17.00
2018-03-06T10:15:24.717Z,16.83
2018-03-06T10:16:27.252Z,16.27
2018-03-06T10:17:30.513Z,15.48
2018-03-06T10:18:33.015Z,15.90
2018-03-06T10:19:35.516Z,17.80
2018-03-06T10:20:38.063Z,16.75
2018-03-06T10:21:40.635Z,17.75
2018-03-06T10:22:43.210Z,16.75
2018-03-06T10:23:45.711Z,17.20
2018-03-06T10:24:48.203Z,16.55
2018-03-06T10:25:50.703Z,17.35
2018-03-06T10:26:53.977Z,15.90
2018-03-06T10:27:57.252Z,16.67
2018-03-06T10:28:59.754Z,15.90
2018-03-06T10:30:02.261Z,16.80
2018-03-06T10:31:04.761Z,18.08
2018-03-06T10:32:07.294Z,17.35
2018-03-06T10:33:09.803Z,15.98
2018-03-06T10:34:12.326Z,16.62
2018-03-06T10:35:14.838Z,16.67
2018-03-06T10:36:17.390Z,17.25
2018-03-06T10:37:19.926Z,16.98
2018-03-06T10:38:22.497Z,17.00
2018-03-06T10:39:24.989Z,16.30
2018-03-06T10:40:27.493Z,16.02
2018-03-06T10:41:29.991Z,16.62
2018-03-06T10:42:33.288Z,16.73
2018-03-06T10:43:35.779Z,16.62
2018-03-06T10:44:38.289Z,15.55
2018-03-06T10:45:40.787Z,16.95
2018-03-06T10:46:44.065Z,16.42
2018-03-06T10:47:46.565Z,16.20
2018-03-06T10:48:49.097Z,17.40
2018-03-06T10:49:51.608Z,17.40
2018-03-06T10:50:54.124Z,17.92
2018-03-06T10:51:56.624Z,18.48
2018-03-06T10:52:59.919Z,16.90
2018-03-06T10:54:03.195Z,18.95
2018-03-06T10:55:06.721Z,17.75
2018-03-06T10:56:09.242Z,18.48
2018-03-06T10:57:11.764Z,18.05
2018-03-06T10:58:14.296Z,16.85
2018-03-06T10:59:16.808Z,17.65
2018-03-06T11:00:25.079Z,17.80
2018-03-06T11:01:33.299Z,18.15
2018-03-06T11:02:41.545Z,17.75
2018-03-06T11:03:44.066Z,17.50
2018-03-06T11:04:47.328Z,17.12
2018-03-06T11:05:49.829Z,18.75
2018-03-06T11:06:53.133Z,18.50
2018-03-06T11:07:55.610Z,17.25
2018-03-06T11:08:58.159Z,18.92
2018-03-06T11:10:00.681Z,18.65
2018-03-06T11:11:03.210Z,19.48
2018-03-06T11:12:05.703Z,18.70
2018-03-06T11:13:08.207Z,18.98
2018-03-06T11:14:10.761Z,18.40
2018-03-06T11:15:13.265Z,17.37
2018-03-06T11:16:16.546Z,17.85
2018-03-06T11:17:19.066Z,16.55
2018-03-06T11:18:21.606Z,17.73
2018-03-06T11:19:24.095Z,18.42
2018-03-06T11:20:26.610Z,18.17
2018-03-06T11:21:29.119Z,18.87
2018-03-06T11:22:32.381Z,17.55
2018-03-06T11:23:34.920Z,18.25
2018-03-06T11:24:37.431Z,17.35
2018-03-06T11:25:39.927Z,18.60
2018-03-06T11:26:43.181Z,17.42
2018-03-06T11:27:45.692Z,18.20
2018-03-06T11:28:48.199Z,18.37
2018-03-06T11:29:50.723Z,18.75
2018-03-06T11:30:53.231Z,18.80
2018-03-06T11:31:55.729Z,17.35
2018-03-06T11:32:59.738Z,17.48
2018-03-06T11:34:02.236Z,17.35
2018-03-06T11:35:05.525Z,17.62
2018-03-06T11:36:08.795Z,18.62
2018-03-06T11:37:11.313Z,17.87
2018-03-06T11:38:13.833Z,16.65
2018-03-06T11:39:17.112Z,17.20
2018-03-06T11:40:19.651Z,17.40
2018-03-06T11:41:22.166Z,16.45
2018-03-06T11:42:25.438Z,15.88
2018-03-06T11:43:27.959Z,15.13
2018-03-06T11:44:30.476Z,16.95
2018-03-06T11:45:32.983Z,16.02
2018-03-06T11:46:36.248Z,15.75
2018-03-06T11:47:38.763Z,16.95
2018-03-06T11:48:41.271Z,15.98
2018-03-06T11:49:43.766Z,16.50
2018-03-06T11:50:46.285Z,17.33
2018-03-06T11:51:48.803Z,15.35
2018-03-06T11:52:52.055Z,16.00
2018-03-06T11:53:54.567Z,17.25
2018-03-06T11:54:57.070Z,15.27
2018-03-06T11:55:59.603Z,16.45
2018-03-06T11:57:02.137Z,15.23
2018-03-06T11:58:04.647Z,15.57
2018-03-06T11:59:08.656Z,16.12
2018-03-06T12:00:11.925Z,15.55
2018-03-06T12:01:14.450Z,15.73
2018-03-06T12:02:16.938Z,14.15
2018-03-06T12:03:19.550Z,14.50
2018-03-06T12:04:22.060Z,15.60
2018-03-06T12:05:24.576Z,16.15
2018-03-06T12:06:27.124Z,15.38
2018-03-06T12:07:29.635Z,15.90
2018-03-06T12:08:32.134Z,16.15
2018-03-06T12:09:34.639Z,15.77
2018-03-06T12:10:37.155Z,15.05
2018-03-06T12:11:40.430Z,16.12
2018-03-06T12:12:42.946Z,16.45
2018-03-06T12:13:45.454Z,16.52
2018-03-06T12:14:47.974Z,15.57
2018-03-06T12:15:51.236Z,15.95
2018-03-06T12:16:54.882Z,14.65
2018-03-06T12:17:57.399Z,16.30
2018-03-06T12:18:59.910Z,16.65
2018-03-06T12:20:02.414Z,15.13
2018-03-06T12:21:04.907Z,17.42
2018-03-06T12:22:07.416Z,16.67
2018-03-06T12:23:09.992Z,17.50
2018-03-06T12:24:12.522Z,17.40
2018-03-06T12:25:15.027Z,16.62
2018-03-06T12:26:17.544Z,16.92
2018-03-06T12:27:20.060Z,16.80
2018-03-06T12:28:23.335Z,16.35
2018-03-06T12:29:25.999Z,17.48
2018-03-06T12:30:28.500Z,17.85
2018-03-06T12:31:30.999Z,16.95
2018-03-06T12:32:33.499Z,16.70
2018-03-06T12:33:36.051Z,17.30
2018-03-06T12:34:38.543Z,16.75
2018-03-06T12:35:42.563Z,17.50
2018-03-06T12:36:45.054Z,17.45
2018-03-06T12:37:48.330Z,16.92
2018-03-06T12:38:51.599Z,18.15
2018-03-06T12:39:54.131Z,19.00
2018-03-06T12:40:56.657Z,14.87
2018-03-06T12:41:59.960Z,16.05
2018-03-06T12:43:03.220Z,17.10
2018-03-06T12:44:05.735Z,17.00
2018-03-06T12:45:08.275Z,16.83
2018-03-06T12:46:11.562Z,17.67
2018-03-06T12:47:14.849Z,19.08
2018-03-06T12:48:18.136Z,18.67
2018-03-06T12:49:21.411Z,18.00
2018-03-06T12:50:24.688Z,16.90
2018-03-06T12:51:27.196Z,17.62
2018-03-06T12:52:30.536Z,16.90
2018-03-06T12:53:33.032Z,15.90
2018-03-06T12:54:35.543Z,18.95
2018-03-06T12:55:38.062Z,16.55
2018-03-06T12:56:40.571Z,17.30
2018-03-06T12:57:43.819Z,17.60
2018-03-06T12:58:46.320Z,18.15
2018-03-06T12:59:50.588Z,17.98
2018-03-06T13:00:53.124Z,16.95
2018-03-06T13:01:55.642Z,16.92
2018-03-06T13:02:58.156Z,17.40
2018-03-06T13:04:00.667Z,19.08
2018-03-06T13:05:03.320Z,17.87
2018-03-06T13:06:05.832Z,18.58
2018-03-06T13:07:08.417Z,18.08
2018-03-06T13:08:10.895Z,17.48
2018-03-06T13:09:14.177Z,16.00
2018-03-06T13:10:16.723Z,17.70
2018-03-06T13:11:19.258Z,18.48
2018-03-06T13:12:21.809Z,16.77
2018-03-06T13:13:25.076Z,18.30
2018-03-06T13:14:27.583Z,18.92
2018-03-06T13:15:30.096Z,17.60
2018-03-06T13:16:32.599Z,17.15
2018-03-06T13:17:35.900Z,16.33
2018-03-06T13:18:38.630Z,17.35
2018-03-06T13:19:41.133Z,18.05
2018-03-06T13:20:45.048Z,20.02
2018-03-06T13:21:47.556Z,18.30
2018-03-06T13:22:50.063Z,17.17
2018-03-06T13:23:53.350Z,18.48
2018-03-06T13:24:56.678Z,18.52
2018-03-06T13:25:59.719Z,17.10
2018-03-06T13:27:02.238Z,18.17
2018-03-06T13:28:05.354Z,17.50
2018-03-06T13:29:07.864Z,16.75